sensor_id;sensor_type;location;lat;lon;timestamp;pressure;altitude;pressure_sealevel;temperature
18782;BMP180;9519;51.890;8.970;2023-03-01T00:03:16;99353.00;;;-2.50
18782;BMP180;9519;51.890;8.970;2023-03-01T00:08:19;98796.00;;;-2.60
18782;BMP180;9519;51.890;8.970;2023-03-01T00:13:21;98809.00;;;-2.60
18782;BMP180;9519;51.890;8.970;2023-03-01T00:18:24;99322.00;;;-2.60
18782;BMP180;9519;51.890;8.970;2023-03-01T00:23:27;98755.00;;;-2.70
18782;BMP180;9519;51.890;8.970;2023-03-01T00:28:30;99316.00;;;-2.70
18782;BMP180;9519;51.890;8.970;2023-03-01T00:33:33;99280.00;;;-2.80
18782;BMP180;9519;51.890;8.970;2023-03-01T00:38:38;98917.00;;;-2.80
18782;BMP180;9519;51.890;8.970;2023-03-01T00:43:43;98676.00;;;-2.90
18782;BMP180;9519;51.890;8.970;2023-03-01T00:48:46;99208.00;;;-2.90
18782;BMP180;9519;51.890;8.970;2023-03-01T00:53:51;98900.00;;;-2.90
18782;BMP180;9519;51.890;8.970;2023-03-01T00:58:54;99185.00;;;-3.00
18782;BMP180;9519;51.890;8.970;2023-03-01T01:03:58;98906.00;;;-3.00
18782;BMP180;9519;51.890;8.970;2023-03-01T01:09:04;98941.00;;;-3.00
18782;BMP180;9519;51.890;8.970;2023-03-01T01:14:07;99203.00;;;-3.10
18782;BMP180;9519;51.890;8.970;2023-03-01T01:19:10;99206.00;;;-3.10
18782;BMP180;9519;51.890;8.970;2023-03-01T01:24:14;98634.00;;;-3.10
18782;BMP180;9519;51.890;8.970;2023-03-01T01:29:17;99093.00;;;-3.20
18782;BMP180;9519;51.890;8.970;2023-03-01T01:34:21;98669.00;;;-3.30
18782;BMP180;9519;51.890;8.970;2023-03-01T01:39:24;98426.00;;;-3.40
18782;BMP180;9519;51.890;8.970;2023-03-01T01:44:29;98482.00;;;-3.40
18782;BMP180;9519;51.890;8.970;2023-03-01T01:49:36;98453.00;;;-3.50
18782;BMP180;9519;51.890;8.970;2023-03-01T01:54:44;98551.00;;;-3.50
18782;BMP180;9519;51.890;8.970;2023-03-01T01:59:52;98640.00;;;-3.60
18782;BMP180;9519;51.890;8.970;2023-03-01T02:05:03;98475.00;;;-3.60
18782;BMP180;9519;51.890;8.970;2023-03-01T02:10:13;98553.00;;;-3.70
18782;BMP180;9519;51.890;8.970;2023-03-01T02:15:16;98860.00;;;-3.70
18782;BMP180;9519;51.890;8.970;2023-03-01T02:20:26;98536.00;;;-3.80
18782;BMP180;9519;51.890;8.970;2023-03-01T02:25:43;98460.00;;;-3.80
18782;BMP180;9519;51.890;8.970;2023-03-01T02:30:49;98483.00;;;-3.80
18782;BMP180;9519;51.890;8.970;2023-03-01T02:36:30;98457.00;;;-3.90
18782;BMP180;9519;51.890;8.970;2023-03-01T02:41:37;98360.00;;;-3.90
18782;BMP180;9519;51.890;8.970;2023-03-01T02:46:47;98318.00;;;-3.90
18782;BMP180;9519;51.890;8.970;2023-03-01T02:52:22;98339.00;;;-4.00
18782;BMP180;9519;51.890;8.970;2023-03-01T02:57:29;98205.00;;;-4.00
18782;BMP180;9519;51.890;8.970;2023-03-01T03:02:33;98345.00;;;-4.00
18782;BMP180;9519;51.890;8.970;2023-03-01T03:07:41;98303.00;;;-4.10
18782;BMP180;9519;51.890;8.970;2023-03-01T03:12:44;98732.00;;;-4.10
18782;BMP180;9519;51.890;8.970;2023-03-01T03:17:48;98415.00;;;-4.20
18782;BMP180;9519;51.890;8.970;2023-03-01T03:22:54;98337.00;;;-4.20
18782;BMP180;9519;51.890;8.970;2023-03-01T03:27:57;98305.00;;;-4.20
18782;BMP180;9519;51.890;8.970;2023-03-01T03:33:01;98000.00;;;-4.20
18782;BMP180;9519;51.890;8.970;2023-03-01T03:38:08;98298.00;;;-4.20
18782;BMP180;9519;51.890;8.970;2023-03-01T03:43:19;98331.00;;;-4.20
18782;BMP180;9519;51.890;8.970;2023-03-01T03:48:24;98282.00;;;-4.20
18782;BMP180;9519;51.890;8.970;2023-03-01T03:53:28;98365.00;;;-4.10
18782;BMP180;9519;51.890;8.970;2023-03-01T03:58:31;98688.00;;;-4.10
18782;BMP180;9519;51.890;8.970;2023-03-01T04:03:34;98103.00;;;-4.10
18782;BMP180;9519;51.890;8.970;2023-03-01T04:08:37;98691.00;;;-4.20
18782;BMP180;9519;51.890;8.970;2023-03-01T04:13:39;98641.00;;;-4.20
18782;BMP180;9519;51.890;8.970;2023-03-01T04:18:43;98009.00;;;-4.30
18782;BMP180;9519;51.890;8.970;2023-03-01T04:23:45;98640.00;;;-4.30
18782;BMP180;9519;51.890;8.970;2023-03-01T04:28:48;98637.00;;;-4.40
18782;BMP180;9519;51.890;8.970;2023-03-01T04:33:55;98160.00;;;-4.50
18782;BMP180;9519;51.890;8.970;2023-03-01T04:38:57;98568.00;;;-4.50
18782;BMP180;9519;51.890;8.970;2023-03-01T04:44:00;98531.00;;;-4.50
18782;BMP180;9519;51.890;8.970;2023-03-01T04:49:03;97853.00;;;-4.60
18782;BMP180;9519;51.890;8.970;2023-03-01T04:54:06;98496.00;;;-4.60
18782;BMP180;9519;51.890;8.970;2023-03-01T04:59:09;98458.00;;;-4.70
18782;BMP180;9519;51.890;8.970;2023-03-01T05:04:14;97520.00;;;-4.70
18782;BMP180;9519;51.890;8.970;2023-03-01T05:09:17;98454.00;;;-4.70
18782;BMP180;9519;51.890;8.970;2023-03-01T05:14:19;98496.00;;;-4.80
18782;BMP180;9519;51.890;8.970;2023-03-01T05:19:23;97802.00;;;-4.80
18782;BMP180;9519;51.890;8.970;2023-03-01T05:24:30;98079.00;;;-4.90
18782;BMP180;9519;51.890;8.970;2023-03-01T05:29:32;98443.00;;;-4.90
18782;BMP180;9519;51.890;8.970;2023-03-01T05:34:37;97736.00;;;-4.90
18782;BMP180;9519;51.890;8.970;2023-03-01T05:39:40;98434.00;;;-4.90
18782;BMP180;9519;51.890;8.970;2023-03-01T05:44:42;98370.00;;;-5.00
18782;BMP180;9519;51.890;8.970;2023-03-01T05:49:46;97639.00;;;-5.00
18782;BMP180;9519;51.890;8.970;2023-03-01T05:54:50;98378.00;;;-5.00
18782;BMP180;9519;51.890;8.970;2023-03-01T05:59:53;98350.00;;;-5.10
18782;BMP180;9519;51.890;8.970;2023-03-01T06:04:56;97598.00;;;-5.10
18782;BMP180;9519;51.890;8.970;2023-03-01T06:09:59;98359.00;;;-5.10
18782;BMP180;9519;51.890;8.970;2023-03-01T06:15:02;98252.00;;;-5.10
18782;BMP180;9519;51.890;8.970;2023-03-01T06:20:10;97586.00;;;-5.20
18782;BMP180;9519;51.890;8.970;2023-03-01T06:25:16;97854.00;;;-5.20
18782;BMP180;9519;51.890;8.970;2023-03-01T06:30:21;97892.00;;;-5.20
18782;BMP180;9519;51.890;8.970;2023-03-01T06:35:25;97572.00;;;-5.20
18782;BMP180;9519;51.890;8.970;2023-03-01T06:40:31;97833.00;;;-5.20
18782;BMP180;9519;51.890;8.970;2023-03-01T06:45:37;98335.00;;;-5.10
18782;BMP180;9519;51.890;8.970;2023-03-01T06:50:40;97623.00;;;-5.10
18782;BMP180;9519;51.890;8.970;2023-03-01T06:55:43;98274.00;;;-5.10
18782;BMP180;9519;51.890;8.970;2023-03-01T07:00:45;98039.00;;;-5.00
18782;BMP180;9519;51.890;8.970;2023-03-01T07:05:50;97968.00;;;-5.00
18782;BMP180;9519;51.890;8.970;2023-03-01T07:10:56;97899.00;;;-4.90
18782;BMP180;9519;51.890;8.970;2023-03-01T07:15:58;98447.00;;;-4.80
18782;BMP180;9519;51.890;8.970;2023-03-01T07:21:06;98189.00;;;-4.70
18782;BMP180;9519;51.890;8.970;2023-03-01T07:26:08;98594.00;;;-4.50
18782;BMP180;9519;51.890;8.970;2023-03-01T07:31:10;98636.00;;;-4.40
18782;BMP180;9519;51.890;8.970;2023-03-01T07:36:14;98011.00;;;-4.20
18782;BMP180;9519;51.890;8.970;2023-03-01T07:41:16;98708.00;;;-4.10
18782;BMP180;9519;51.890;8.970;2023-03-01T07:46:19;98821.00;;;-4.00
18782;BMP180;9519;51.890;8.970;2023-03-01T07:51:22;98216.00;;;-3.90
18782;BMP180;9519;51.890;8.970;2023-03-01T07:56:25;98893.00;;;-3.70
18782;BMP180;9519;51.890;8.970;2023-03-01T08:01:27;98921.00;;;-3.60
18782;BMP180;9519;51.890;8.970;2023-03-01T08:06:34;98587.00;;;-3.40
18782;BMP180;9519;51.890;8.970;2023-03-01T08:11:37;99023.00;;;-3.20
18782;BMP180;9519;51.890;8.970;2023-03-01T08:16:39;99101.00;;;-3.00
18782;BMP180;9519;51.890;8.970;2023-03-01T08:21:43;98622.00;;;-2.80
18782;BMP180;9519;51.890;8.970;2023-03-01T08:26:45;99235.00;;;-2.60
18782;BMP180;9519;51.890;8.970;2023-03-01T08:31:48;99236.00;;;-2.40
18782;BMP180;9519;51.890;8.970;2023-03-01T08:36:51;98843.00;;;-2.20
18782;BMP180;9519;51.890;8.970;2023-03-01T08:41:54;99381.00;;;-1.90
18782;BMP180;9519;51.890;8.970;2023-03-01T08:46:56;99014.00;;;-1.60
18782;BMP180;9519;51.890;8.970;2023-03-01T08:52:01;99199.00;;;-1.40
18782;BMP180;9519;51.890;8.970;2023-03-01T08:57:04;99157.00;;;-1.20
18782;BMP180;9519;51.890;8.970;2023-03-01T09:02:11;99320.00;;;-1.00
18782;BMP180;9519;51.890;8.970;2023-03-01T09:07:15;99213.00;;;-0.80
18782;BMP180;9519;51.890;8.970;2023-03-01T09:12:18;99700.00;;;-0.50
18782;BMP180;9519;51.890;8.970;2023-03-01T09:17:20;99361.00;;;-0.30
18782;BMP180;9519;51.890;8.970;2023-03-01T09:22:23;99422.00;;;-0.10
18782;BMP180;9519;51.890;8.970;2023-03-01T09:27:25;99452.00;;;0.20
18782;BMP180;9519;51.890;8.970;2023-03-01T09:32:29;99597.00;;;0.40
18782;BMP180;9519;51.890;8.970;2023-03-01T09:37:35;99564.00;;;0.60
18782;BMP180;9519;51.890;8.970;2023-03-01T09:42:51;99607.00;;;0.90
18782;BMP180;9519;51.890;8.970;2023-03-01T09:47:54;99607.00;;;1.00
18782;BMP180;9519;51.890;8.970;2023-03-01T09:53:04;99677.00;;;1.20
18782;BMP180;9519;51.890;8.970;2023-03-01T09:58:33;99651.00;;;1.40
18782;BMP180;9519;51.890;8.970;2023-03-01T10:03:43;99750.00;;;1.50
18782;BMP180;9519;51.890;8.970;2023-03-01T10:08:56;99827.00;;;1.70
18782;BMP180;9519;51.890;8.970;2023-03-01T10:14:05;99879.00;;;1.90
18782;BMP180;9519;51.890;8.970;2023-03-01T10:19:15;99852.00;;;2.00
18782;BMP180;9519;51.890;8.970;2023-03-01T10:24:20;99801.00;;;2.20
18782;BMP180;9519;51.890;8.970;2023-03-01T10:29:28;99917.00;;;2.30
18782;BMP180;9519;51.890;8.970;2023-03-01T10:34:35;99938.00;;;2.40
18782;BMP180;9519;51.890;8.970;2023-03-01T10:39:56;99900.00;;;2.60
18782;BMP180;9519;51.890;8.970;2023-03-01T10:45:31;99881.00;;;2.60
18782;BMP180;9519;51.890;8.970;2023-03-01T10:50:34;99942.00;;;2.70
18782;BMP180;9519;51.890;8.970;2023-03-01T10:55:40;99871.00;;;2.80
18782;BMP180;9519;51.890;8.970;2023-03-01T11:00:49;99908.00;;;2.90
18782;BMP180;9519;51.890;8.970;2023-03-01T11:05:59;99930.00;;;3.00
18782;BMP180;9519;51.890;8.970;2023-03-01T11:11:20;99897.00;;;3.10
18782;BMP180;9519;51.890;8.970;2023-03-01T11:16:30;99869.00;;;3.10
18782;BMP180;9519;51.890;8.970;2023-03-01T11:21:36;99777.00;;;3.20
18782;BMP180;9519;51.890;8.970;2023-03-01T11:26:47;99870.00;;;3.30
18782;BMP180;9519;51.890;8.970;2023-03-01T11:31:54;99892.00;;;3.40
18782;BMP180;9519;51.890;8.970;2023-03-01T11:37:02;99877.00;;;3.50
18782;BMP180;9519;51.890;8.970;2023-03-01T11:42:15;99895.00;;;3.70
18782;BMP180;9519;51.890;8.970;2023-03-01T11:47:50;99990.00;;;3.80
18782;BMP180;9519;51.890;8.970;2023-03-01T11:53:21;99993.00;;;3.80
18782;BMP180;9519;51.890;8.970;2023-03-01T11:58:54;99981.00;;;3.90
18782;BMP180;9519;51.890;8.970;2023-03-01T12:10:19;99877.00;;;3.90
18782;BMP180;9519;51.890;8.970;2023-03-01T12:15:55;99870.00;;;4.00
18782;BMP180;9519;51.890;8.970;2023-03-01T12:21:13;99935.00;;;4.10
18782;BMP180;9519;51.890;8.970;2023-03-01T12:26:26;99954.00;;;4.20
18782;BMP180;9519;51.890;8.970;2023-03-01T12:37:31;99967.00;;;4.40
18782;BMP180;9519;51.890;8.970;2023-03-01T12:42:47;99911.00;;;4.60
18782;BMP180;9519;51.890;8.970;2023-03-01T12:48:21;99891.00;;;4.70
18782;BMP180;9519;51.890;8.970;2023-03-01T12:53:31;99887.00;;;4.70
18782;BMP180;9519;51.890;8.970;2023-03-01T12:58:41;99886.00;;;4.80
18782;BMP180;9519;51.890;8.970;2023-03-01T13:04:22;99883.00;;;4.90
18782;BMP180;9519;51.890;8.970;2023-03-01T13:09:34;99884.00;;;5.00
18782;BMP180;9519;51.890;8.970;2023-03-01T13:14:45;99901.00;;;5.10
18782;BMP180;9519;51.890;8.970;2023-03-01T13:19:58;99895.00;;;5.10
18782;BMP180;9519;51.890;8.970;2023-03-01T13:25:15;99909.00;;;5.20
18782;BMP180;9519;51.890;8.970;2023-03-01T13:30:41;99812.00;;;5.20
18782;BMP180;9519;51.890;8.970;2023-03-01T13:35:45;99868.00;;;5.20
18782;BMP180;9519;51.890;8.970;2023-03-01T13:40:59;99910.00;;;5.30
18782;BMP180;9519;51.890;8.970;2023-03-01T13:46:10;99889.00;;;5.40
18782;BMP180;9519;51.890;8.970;2023-03-01T13:51:14;99898.00;;;5.50
18782;BMP180;9519;51.890;8.970;2023-03-01T13:56:21;99928.00;;;5.60
18782;BMP180;9519;51.890;8.970;2023-03-01T14:01:29;99935.00;;;5.80
18782;BMP180;9519;51.890;8.970;2023-03-01T14:06:33;99879.00;;;5.80
18782;BMP180;9519;51.890;8.970;2023-03-01T14:12:06;99910.00;;;6.00
18782;BMP180;9519;51.890;8.970;2023-03-01T14:17:49;99955.00;;;6.20
18782;BMP180;9519;51.890;8.970;2023-03-01T14:22:58;99935.00;;;6.30
18782;BMP180;9519;51.890;8.970;2023-03-01T14:28:11;99964.00;;;6.40
18782;BMP180;9519;51.890;8.970;2023-03-01T14:33:22;99977.00;;;6.50
18782;BMP180;9519;51.890;8.970;2023-03-01T14:38:33;99987.00;;;6.60
18782;BMP180;9519;51.890;8.970;2023-03-01T14:43:37;99977.00;;;6.80
18782;BMP180;9519;51.890;8.970;2023-03-01T14:48:40;99977.00;;;7.00
18782;BMP180;9519;51.890;8.970;2023-03-01T14:53:44;99976.00;;;7.30
18782;BMP180;9519;51.890;8.970;2023-03-01T14:58:51;99984.00;;;7.40
18782;BMP180;9519;51.890;8.970;2023-03-01T15:03:54;99976.00;;;7.50
18782;BMP180;9519;51.890;8.970;2023-03-01T15:08:58;99976.00;;;7.60
18782;BMP180;9519;51.890;8.970;2023-03-01T15:14:00;99968.00;;;7.60
18782;BMP180;9519;51.890;8.970;2023-03-01T15:19:06;99968.00;;;7.70
18782;BMP180;9519;51.890;8.970;2023-03-01T15:24:20;99955.00;;;7.80
18782;BMP180;9519;51.890;8.970;2023-03-01T15:29:27;99929.00;;;7.70
18782;BMP180;9519;51.890;8.970;2023-03-01T15:34:32;99922.00;;;7.70
18782;BMP180;9519;51.890;8.970;2023-03-01T15:39:39;99932.00;;;7.60
18782;BMP180;9519;51.890;8.970;2023-03-01T15:44:43;99922.00;;;7.50
18782;BMP180;9519;51.890;8.970;2023-03-01T15:49:46;99916.00;;;7.30
18782;BMP180;9519;51.890;8.970;2023-03-01T15:54:49;99895.00;;;7.10
18782;BMP180;9519;51.890;8.970;2023-03-01T15:59:52;99863.00;;;6.70
18782;BMP180;9519;51.890;8.970;2023-03-01T16:04:54;99914.00;;;6.30
18782;BMP180;9519;51.890;8.970;2023-03-01T16:09:58;99869.00;;;5.90
18782;BMP180;9519;51.890;8.970;2023-03-01T16:15:00;99869.00;;;5.60
18782;BMP180;9519;51.890;8.970;2023-03-01T16:20:04;99863.00;;;5.30
18782;BMP180;9519;51.890;8.970;2023-03-01T16:25:09;99794.00;;;5.10
18782;BMP180;9519;51.890;8.970;2023-03-01T16:30:13;99758.00;;;4.80
18782;BMP180;9519;51.890;8.970;2023-03-01T16:35:18;99790.00;;;4.60
18782;BMP180;9519;51.890;8.970;2023-03-01T16:40:26;99698.00;;;4.40
18782;BMP180;9519;51.890;8.970;2023-03-01T16:45:35;99702.00;;;4.10
18782;BMP180;9519;51.890;8.970;2023-03-01T16:50:37;99670.00;;;4.00
18782;BMP180;9519;51.890;8.970;2023-03-01T16:55:40;99699.00;;;3.80
18782;BMP180;9519;51.890;8.970;2023-03-01T17:00:46;99731.00;;;3.70
18782;BMP180;9519;51.890;8.970;2023-03-01T17:05:48;99778.00;;;3.60
18782;BMP180;9519;51.890;8.970;2023-03-01T17:10:51;99697.00;;;3.50
18782;BMP180;9519;51.890;8.970;2023-03-01T17:15:53;99748.00;;;3.40
18782;BMP180;9519;51.890;8.970;2023-03-01T17:20:56;99684.00;;;3.30
18782;BMP180;9519;51.890;8.970;2023-03-01T17:25:59;99697.00;;;3.20
18782;BMP180;9519;51.890;8.970;2023-03-01T17:31:04;99734.00;;;3.10
18782;BMP180;9519;51.890;8.970;2023-03-01T17:36:07;99672.00;;;3.00
18782;BMP180;9519;51.890;8.970;2023-03-01T17:41:11;99677.00;;;2.90
18782;BMP180;9519;51.890;8.970;2023-03-01T17:46:13;99722.00;;;2.90
18782;BMP180;9519;51.890;8.970;2023-03-01T17:51:15;99715.00;;;2.80
18782;BMP180;9519;51.890;8.970;2023-03-01T17:56:18;99734.00;;;2.70
18782;BMP180;9519;51.890;8.970;2023-03-01T18:01:21;99459.00;;;2.60
18782;BMP180;9519;51.890;8.970;2023-03-01T18:06:27;99731.00;;;2.50
18782;BMP180;9519;51.890;8.970;2023-03-01T18:11:33;99736.00;;;2.50
18782;BMP180;9519;51.890;8.970;2023-03-01T18:16:35;99617.00;;;2.40
18782;BMP180;9519;51.890;8.970;2023-03-01T18:21:39;99683.00;;;2.30
18782;BMP180;9519;51.890;8.970;2023-03-01T18:26:42;99652.00;;;2.30
18782;BMP180;9519;51.890;8.970;2023-03-01T18:31:44;99667.00;;;2.20
18782;BMP180;9519;51.890;8.970;2023-03-01T18:36:47;99630.00;;;2.20
18782;BMP180;9519;51.890;8.970;2023-03-01T18:41:52;99628.00;;;2.20
18782;BMP180;9519;51.890;8.970;2023-03-01T18:46:55;99620.00;;;2.10
18782;BMP180;9519;51.890;8.970;2023-03-01T18:51:57;99612.00;;;2.00
18782;BMP180;9519;51.890;8.970;2023-03-01T18:57:01;99568.00;;;2.00
18782;BMP180;9519;51.890;8.970;2023-03-01T19:02:03;99562.00;;;1.90
18782;BMP180;9519;51.890;8.970;2023-03-01T19:07:05;99532.00;;;1.80
18782;BMP180;9519;51.890;8.970;2023-03-01T19:12:09;99554.00;;;1.80
18782;BMP180;9519;51.890;8.970;2023-03-01T19:17:11;99537.00;;;1.70
18782;BMP180;9519;51.890;8.970;2023-03-01T19:22:13;99518.00;;;1.70
18782;BMP180;9519;51.890;8.970;2023-03-01T19:27:16;99490.00;;;1.60
18782;BMP180;9519;51.890;8.970;2023-03-01T19:32:18;99539.00;;;1.60
18782;BMP180;9519;51.890;8.970;2023-03-01T19:37:20;99500.00;;;1.60
18782;BMP180;9519;51.890;8.970;2023-03-01T19:42:25;99533.00;;;1.60
18782;BMP180;9519;51.890;8.970;2023-03-01T19:47:28;99724.00;;;1.50
18782;BMP180;9519;51.890;8.970;2023-03-01T19:52:30;99530.00;;;1.50
18782;BMP180;9519;51.890;8.970;2023-03-01T19:57:33;99508.00;;;1.40
18782;BMP180;9519;51.890;8.970;2023-03-01T20:02:35;99483.00;;;1.40
18782;BMP180;9519;51.890;8.970;2023-03-01T20:07:37;99464.00;;;1.30
18782;BMP180;9519;51.890;8.970;2023-03-01T20:12:41;99490.00;;;1.30
18782;BMP180;9519;51.890;8.970;2023-03-01T20:17:45;99551.00;;;1.30
18782;BMP180;9519;51.890;8.970;2023-03-01T20:22:47;99469.00;;;1.30
18782;BMP180;9519;51.890;8.970;2023-03-01T20:27:50;99482.00;;;1.20
18782;BMP180;9519;51.890;8.970;2023-03-01T20:32:53;99710.00;;;1.20
18782;BMP180;9519;51.890;8.970;2023-03-01T20:37:55;99709.00;;;1.10
18782;BMP180;9519;51.890;8.970;2023-03-01T20:42:59;99524.00;;;1.10
18782;BMP180;9519;51.890;8.970;2023-03-01T20:48:02;99735.00;;;1.10
18782;BMP180;9519;51.890;8.970;2023-03-01T20:53:04;99488.00;;;1.00
18782;BMP180;9519;51.890;8.970;2023-03-01T20:58:07;99488.00;;;0.90
18782;BMP180;9519;51.890;8.970;2023-03-01T21:03:09;99465.00;;;0.80
18782;BMP180;9519;51.890;8.970;2023-03-01T21:08:11;99411.00;;;0.80
18782;BMP180;9519;51.890;8.970;2023-03-01T21:13:15;99422.00;;;0.70
18782;BMP180;9519;51.890;8.970;2023-03-01T21:18:17;99438.00;;;0.70
18782;BMP180;9519;51.890;8.970;2023-03-01T21:23:19;99402.00;;;0.60
18782;BMP180;9519;51.890;8.970;2023-03-01T21:28:22;99400.00;;;0.60
18782;BMP180;9519;51.890;8.970;2023-03-01T21:33:24;99444.00;;;0.60
18782;BMP180;9519;51.890;8.970;2023-03-01T21:38:29;99520.00;;;0.50
18782;BMP180;9519;51.890;8.970;2023-03-01T21:43:34;99408.00;;;0.60
18782;BMP180;9519;51.890;8.970;2023-03-01T21:48:36;99367.00;;;0.60
18782;BMP180;9519;51.890;8.970;2023-03-01T21:53:38;99650.00;;;0.60
18782;BMP180;9519;51.890;8.970;2023-03-01T21:58:42;99413.00;;;0.60
18782;BMP180;9519;51.890;8.970;2023-03-01T22:03:44;99440.00;;;0.60
18782;BMP180;9519;51.890;8.970;2023-03-01T22:08:49;99396.00;;;0.50
18782;BMP180;9519;51.890;8.970;2023-03-01T22:13:54;99376.00;;;0.50
18782;BMP180;9519;51.890;8.970;2023-03-01T22:18:57;99342.00;;;0.50
18782;BMP180;9519;51.890;8.970;2023-03-01T22:23:59;99394.00;;;0.50
18782;BMP180;9519;51.890;8.970;2023-03-01T22:29:06;99435.00;;;0.60
18782;BMP180;9519;51.890;8.970;2023-03-01T22:34:09;99438.00;;;0.60
18782;BMP180;9519;51.890;8.970;2023-03-01T22:39:14;99432.00;;;0.50
18782;BMP180;9519;51.890;8.970;2023-03-01T22:44:20;99443.00;;;0.50
18782;BMP180;9519;51.890;8.970;2023-03-01T22:49:23;99347.00;;;0.50
18782;BMP180;9519;51.890;8.970;2023-03-01T22:54:25;99617.00;;;0.50
18782;BMP180;9519;51.890;8.970;2023-03-01T22:59:29;99340.00;;;0.50
18782;BMP180;9519;51.890;8.970;2023-03-01T23:04:31;99322.00;;;0.50
18782;BMP180;9519;51.890;8.970;2023-03-01T23:09:33;99598.00;;;0.40
18782;BMP180;9519;51.890;8.970;2023-03-01T23:14:37;99287.00;;;0.30
18782;BMP180;9519;51.890;8.970;2023-03-01T23:19:41;99288.00;;;0.20
18782;BMP180;9519;51.890;8.970;2023-03-01T23:24:43;99314.00;;;0.20
18782;BMP180;9519;51.890;8.970;2023-03-01T23:29:46;99285.00;;;0.20
18782;BMP180;9519;51.890;8.970;2023-03-01T23:34:48;99323.00;;;0.20
18782;BMP180;9519;51.890;8.970;2023-03-01T23:39:50;99328.00;;;0.20
18782;BMP180;9519;51.890;8.970;2023-03-01T23:44:54;99286.00;;;0.10
18782;BMP180;9519;51.890;8.970;2023-03-01T23:49:56;99285.00;;;0.00
18782;BMP180;9519;51.890;8.970;2023-03-01T23:54:58;99393.00;;;0.00
